createdAt,value
2017-09-25T00:01:38.875Z,10.60
2017-09-25T00:04:07.271Z,10.60
2017-09-25T00:06:36.306Z,10.60
2017-09-25T00:09:04.796Z,10.60
2017-09-25T00:11:33.234Z,10.50
2017-09-25T00:14:02.382Z,10.50
2017-09-25T00:16:30.863Z,10.50
2017-09-25T00:18:59.236Z,10.50
2017-09-25T00:21:27.618Z,10.50
2017-09-25T00:23:56.041Z,10.50
2017-09-25T00:26:25.433Z,10.50
2017-09-25T00:28:54.579Z,10.40
2017-09-25T00:31:23.075Z,10.40
2017-09-25T00:33:51.459Z,10.40
2017-09-25T00:36:19.871Z,10.30
2017-09-25T00:38:49.067Z,10.10
2017-09-25T00:41:17.473Z,10.10
2017-09-25T00:43:45.922Z,10.10
2017-09-25T00:46:15.287Z,10.10
2017-09-25T00:48:43.979Z,10.10
2017-09-25T00:51:12.920Z,10.00
2017-09-25T00:54:01.311Z,9.80
2017-09-25T00:56:29.866Z,9.80
2017-09-25T00:58:58.287Z,9.80
2017-09-25T01:01:44.662Z,9.80
2017-09-25T01:07:21.864Z,9.80
2017-09-25T01:09:50.361Z,9.80
2017-09-25T01:12:18.992Z,9.80
2017-09-25T01:14:48.258Z,9.70
2017-09-25T01:17:16.717Z,9.70
2017-09-25T01:19:45.157Z,9.80
2017-09-25T01:22:13.599Z,9.70
2017-09-25T01:24:42.020Z,9.70
2017-09-25T01:27:11.168Z,9.80
2017-09-25T01:29:39.747Z,9.80
2017-09-25T01:32:09.050Z,9.80
2017-09-25T01:34:37.621Z,9.70
2017-09-25T01:37:06.122Z,9.70
2017-09-25T01:39:34.585Z,9.70
2017-09-25T01:42:02.986Z,9.60
2017-09-25T01:44:31.467Z,9.60
2017-09-25T01:46:59.933Z,9.50
2017-09-25T01:49:28.352Z,9.40
2017-09-25T01:51:57.551Z,9.50
2017-09-25T01:54:26.092Z,9.40
2017-09-25T01:56:54.526Z,9.40
2017-09-25T01:59:23.211Z,9.40
2017-09-25T02:01:51.602Z,9.40
2017-09-25T02:04:20.618Z,9.40
2017-09-25T02:06:49.314Z,9.40
2017-09-25T02:09:17.707Z,9.10
2017-09-25T02:11:46.119Z,8.90
2017-09-25T02:14:14.726Z,8.90
2017-09-25T02:16:43.099Z,8.90
2017-09-25T02:19:11.479Z,8.90
2017-09-25T02:21:40.093Z,9.00
2017-09-25T02:24:08.876Z,9.00
2017-09-25T02:26:37.318Z,9.00
2017-09-25T02:29:05.814Z,9.00
2017-09-25T02:31:34.254Z,8.90
2017-09-25T02:34:03.074Z,8.90
2017-09-25T02:36:32.109Z,8.80
2017-09-25T02:39:00.504Z,8.80
2017-09-25T02:41:28.895Z,8.70
2017-09-25T02:43:57.590Z,8.70
2017-09-25T02:46:26.831Z,8.70
2017-09-25T02:48:55.210Z,8.60
2017-09-25T02:51:23.678Z,8.60
2017-09-25T02:53:52.146Z,8.60
2017-09-25T02:56:20.728Z,8.60
2017-09-25T02:58:49.396Z,8.60
2017-09-25T03:01:19.169Z,8.70
2017-09-25T03:03:49.211Z,8.60
2017-09-25T03:06:18.594Z,8.70
2017-09-25T03:08:47.616Z,8.70
2017-09-25T03:11:18.519Z,8.70
2017-09-25T03:13:47.804Z,8.70
2017-09-25T03:16:17.332Z,8.60
2017-09-25T03:18:46.551Z,8.60
2017-09-25T03:21:17.455Z,8.60
2017-09-25T03:23:46.991Z,8.50
2017-09-25T03:26:16.404Z,8.60
2017-09-25T03:28:44.938Z,8.60
2017-09-25T03:31:13.632Z,8.60
2017-09-25T03:33:42.060Z,8.70
2017-09-25T03:36:11.536Z,8.70
2017-09-25T03:38:40.202Z,8.70
2017-09-25T03:41:08.641Z,8.70
2017-09-25T03:43:37.885Z,8.60
2017-09-25T03:46:06.670Z,8.60
2017-09-25T03:48:35.253Z,8.60
2017-09-25T03:51:03.974Z,8.60
2017-09-25T03:53:32.398Z,8.60
2017-09-25T03:56:00.891Z,8.70
2017-09-25T03:58:29.466Z,8.70
2017-09-25T04:00:58.066Z,8.70
2017-09-25T04:03:26.519Z,8.70
2017-09-25T04:05:55.350Z,8.60
2017-09-25T04:08:25.428Z,8.50
2017-09-25T04:10:53.921Z,8.60
2017-09-25T04:13:22.517Z,8.60
2017-09-25T04:15:51.143Z,8.30
2017-09-25T04:18:20.347Z,8.20
2017-09-25T04:20:49.026Z,8.20
2017-09-25T04:23:18.487Z,8.10
2017-09-25T04:25:47.112Z,8.10
2017-09-25T04:28:16.580Z,7.80
2017-09-25T04:30:45.193Z,7.80
2017-09-25T04:33:14.932Z,7.70
2017-09-25T04:35:43.555Z,7.70
2017-09-25T04:38:12.244Z,7.70
2017-09-25T04:40:40.824Z,7.70
2017-09-25T04:43:09.455Z,7.60
2017-09-25T04:45:37.907Z,7.80
2017-09-25T04:48:06.349Z,7.80
2017-09-25T04:50:34.981Z,7.80
2017-09-25T04:53:04.207Z,7.80
2017-09-25T04:55:32.646Z,7.80
2017-09-25T04:58:02.983Z,7.70
2017-09-25T05:00:32.251Z,7.60
2017-09-25T05:03:02.416Z,7.70
2017-09-25T05:05:30.910Z,7.60
2017-09-25T05:07:59.396Z,7.80
2017-09-25T05:10:27.965Z,7.90
2017-09-25T05:12:56.636Z,8.10
2017-09-25T05:15:26.097Z,8.10
2017-09-25T05:17:54.677Z,8.10
2017-09-25T05:20:23.482Z,8.10
2017-09-25T05:22:51.937Z,7.90
2017-09-25T05:25:20.374Z,7.90
2017-09-25T05:27:49.609Z,7.90
2017-09-25T05:30:18.325Z,7.90
2017-09-25T05:32:46.909Z,7.90
2017-09-25T05:35:16.166Z,8.00
2017-09-25T05:37:44.672Z,8.00
2017-09-25T05:40:13.373Z,8.10
2017-09-25T05:42:42.067Z,8.10
2017-09-25T05:45:10.530Z,8.20
2017-09-25T05:47:38.999Z,8.30
2017-09-25T05:50:07.463Z,8.40
2017-09-25T05:52:35.883Z,8.60
2017-09-25T05:55:04.311Z,9.00
2017-09-25T05:57:32.830Z,9.30
2017-09-25T06:00:01.398Z,9.30
2017-09-25T06:02:30.212Z,9.70
2017-09-25T06:04:58.693Z,10.00
2017-09-25T06:07:27.377Z,10.50
2017-09-25T06:09:56.099Z,10.90
2017-09-25T06:12:25.361Z,11.20
2017-09-25T06:14:53.936Z,11.20
2017-09-25T06:17:23.334Z,11.50
2017-09-25T06:19:52.192Z,12.00
2017-09-25T06:22:20.841Z,12.20
2017-09-25T06:24:50.126Z,12.90
2017-09-25T06:27:20.490Z,12.90
2017-09-25T06:29:49.032Z,12.80
2017-09-25T06:32:18.430Z,14.20
2017-09-25T06:34:47.069Z,14.10
2017-09-25T06:37:23.267Z,14.60
2017-09-25T06:39:51.763Z,15.20
2017-09-25T06:42:20.209Z,15.70
2017-09-25T06:44:48.649Z,15.90
2017-09-25T06:47:18.117Z,16.60
2017-09-25T06:49:46.748Z,16.60
2017-09-25T06:52:15.377Z,16.60
2017-09-25T06:54:44.082Z,16.80
2017-09-25T06:57:12.656Z,17.20
2017-09-25T06:59:41.135Z,17.40
2017-09-25T07:02:09.622Z,17.90
2017-09-25T07:04:38.249Z,18.00
2017-09-25T07:07:06.687Z,18.50
2017-09-25T07:09:35.256Z,18.90
2017-09-25T07:12:03.674Z,19.00
2017-09-25T07:14:32.930Z,19.60
2017-09-25T07:17:01.413Z,19.50
2017-09-25T07:19:29.842Z,20.10
2017-09-25T07:21:59.038Z,20.80
2017-09-25T07:24:28.504Z,21.50
2017-09-25T07:26:56.934Z,21.40
2017-09-25T07:29:25.373Z,21.60
2017-09-25T07:31:53.819Z,22.10
2017-09-25T07:34:22.281Z,22.30
2017-09-25T07:36:50.766Z,22.50
2017-09-25T07:39:19.243Z,22.70
2017-09-25T07:41:47.970Z,22.70
2017-09-25T07:44:16.605Z,22.60
2017-09-25T07:46:45.090Z,23.00
2017-09-25T07:49:13.475Z,23.30
2017-09-25T07:51:42.098Z,23.10
2017-09-25T07:54:11.082Z,23.50
2017-09-25T07:56:39.516Z,23.50
2017-09-25T07:59:08.718Z,24.00
2017-09-25T08:01:37.938Z,24.10
2017-09-25T08:04:06.344Z,24.10
2017-09-25T08:06:34.931Z,24.10
2017-09-25T08:09:04.311Z,23.90
2017-09-25T08:11:32.747Z,23.90
2017-09-25T08:14:02.103Z,24.70
2017-09-25T08:16:30.867Z,24.60
2017-09-25T08:18:59.303Z,24.80
2017-09-25T08:21:27.723Z,25.30
2017-09-25T08:23:56.151Z,25.80
2017-09-25T08:26:24.569Z,25.80
2017-09-25T08:28:52.965Z,25.30
2017-09-25T08:31:22.117Z,25.90
2017-09-25T08:33:50.773Z,26.00
2017-09-25T08:36:19.230Z,26.10
2017-09-25T08:38:47.718Z,26.30
2017-09-25T08:41:16.324Z,26.40
2017-09-25T08:43:45.263Z,26.50
2017-09-25T08:46:13.700Z,26.40
2017-09-25T08:48:42.086Z,26.50
2017-09-25T08:51:11.274Z,26.70
2017-09-25T08:53:40.343Z,26.70
2017-09-25T08:56:08.943Z,26.40
2017-09-25T08:58:37.383Z,26.50
2017-09-25T09:01:05.823Z,26.80
2017-09-25T09:03:35.009Z,26.90
2017-09-25T09:06:03.472Z,26.90
2017-09-25T09:08:50.271Z,27.20
2017-09-25T09:11:19.366Z,27.90
2017-09-25T09:13:47.809Z,27.70
2017-09-25T09:16:17.222Z,26.60
2017-09-25T09:18:46.396Z,26.90
2017-09-25T09:21:14.808Z,26.80
2017-09-25T09:23:43.530Z,27.10
2017-09-25T09:26:11.935Z,27.80
2017-09-25T09:28:40.378Z,27.30
2017-09-25T09:31:08.942Z,27.40
2017-09-25T09:33:37.374Z,28.30
2017-09-25T09:36:06.610Z,27.80
2017-09-25T09:38:35.132Z,27.80
2017-09-25T09:41:03.570Z,27.10
2017-09-25T09:43:32.004Z,26.40
2017-09-25T09:46:00.919Z,26.00
2017-09-25T09:48:29.363Z,25.60
2017-09-25T09:50:57.802Z,25.20
2017-09-25T09:53:26.283Z,25.30
2017-09-25T09:55:54.726Z,26.20
2017-09-25T09:58:23.344Z,27.00
2017-09-25T10:00:51.881Z,27.70
2017-09-25T10:03:20.315Z,27.90
2017-09-25T10:05:49.050Z,27.40
2017-09-25T10:08:17.823Z,27.20
2017-09-25T10:10:46.208Z,27.30
2017-09-25T10:13:14.635Z,27.70
2017-09-25T10:15:43.154Z,28.20
2017-09-25T10:18:11.540Z,28.80
2017-09-25T10:20:40.222Z,29.20
2017-09-25T10:23:08.912Z,28.50
2017-09-25T10:25:38.229Z,28.80
2017-09-25T10:28:06.691Z,29.00
2017-09-25T10:30:35.260Z,29.10
2017-09-25T10:33:03.961Z,29.50
2017-09-25T10:35:32.410Z,30.00
2017-09-25T10:38:01.047Z,30.50
2017-09-25T10:40:29.692Z,30.80
2017-09-25T10:42:58.108Z,30.90
2017-09-25T10:45:26.539Z,30.50
2017-09-25T10:47:55.754Z,30.50
2017-09-25T10:50:24.186Z,30.10
2017-09-25T10:52:54.237Z,30.10
2017-09-25T10:55:22.689Z,30.10
2017-09-25T10:57:52.148Z,30.80
2017-09-25T11:00:20.626Z,30.80
2017-09-25T11:02:49.063Z,31.40
2017-09-25T11:05:17.641Z,31.10
2017-09-25T11:07:46.159Z,31.10
2017-09-25T11:10:14.604Z,30.90
2017-09-25T11:12:44.510Z,30.70
2017-09-25T11:15:13.871Z,30.60
2017-09-25T11:17:42.505Z,30.60
2017-09-25T11:20:10.936Z,30.20
2017-09-25T11:22:39.482Z,30.10
2017-09-25T11:25:07.941Z,30.40
2017-09-25T11:27:37.770Z,29.70
2017-09-25T11:30:06.327Z,29.70
2017-09-25T11:32:35.497Z,28.30
2017-09-25T11:35:04.128Z,28.30
2017-09-25T11:37:32.746Z,28.20
2017-09-25T11:40:01.140Z,28.30
2017-09-25T11:42:29.524Z,28.50
2017-09-25T11:44:57.988Z,29.00
2017-09-25T11:47:26.417Z,28.10
2017-09-25T11:49:55.570Z,27.40
2017-09-25T11:52:23.999Z,27.30
2017-09-25T11:54:53.148Z,27.90
2017-09-25T11:57:21.717Z,27.80
2017-09-25T11:59:50.136Z,28.00
2017-09-25T12:02:18.741Z,27.80
2017-09-25T12:04:47.166Z,28.00
2017-09-25T12:07:15.669Z,27.70
2017-09-25T12:09:44.903Z,27.50
2017-09-25T12:12:13.409Z,27.50
2017-09-25T12:14:42.325Z,27.90
2017-09-25T12:17:10.715Z,28.10
2017-09-25T12:19:39.099Z,28.00
2017-09-25T12:22:07.532Z,28.00
2017-09-25T12:24:36.201Z,28.00
2017-09-25T12:27:04.927Z,28.40
2017-09-25T12:29:33.410Z,28.40
2017-09-25T12:32:02.049Z,28.20
2017-09-25T12:34:30.716Z,28.00
2017-09-25T12:37:00.130Z,28.10
2017-09-25T12:39:29.279Z,27.70
2017-09-25T12:41:57.705Z,27.70
2017-09-25T12:44:26.912Z,27.20
2017-09-25T12:46:56.054Z,27.30
2017-09-25T12:49:24.437Z,27.30
2017-09-25T12:51:52.851Z,27.50
2017-09-25T12:54:22.011Z,27.40
2017-09-25T12:56:50.403Z,27.40
2017-09-25T12:59:20.372Z,27.20
2017-09-25T13:01:48.754Z,27.20
2017-09-25T13:04:17.139Z,27.00
2017-09-25T13:06:45.568Z,26.40
2017-09-25T13:09:13.943Z,25.60
2017-09-25T13:11:43.842Z,24.90
2017-09-25T13:14:12.256Z,24.90
2017-09-25T13:16:41.403Z,25.50
2017-09-25T13:19:09.797Z,25.50
2017-09-25T13:21:38.365Z,25.80
2017-09-25T13:24:06.744Z,25.70
2017-09-25T13:26:35.139Z,25.90
2017-09-25T13:29:03.548Z,25.90
2017-09-25T13:31:32.695Z,26.40
2017-09-25T13:34:01.091Z,26.40
2017-09-25T13:36:29.507Z,26.50
2017-09-25T13:38:58.662Z,26.00
2017-09-25T13:41:27.059Z,25.90
2017-09-25T13:43:55.500Z,25.90
2017-09-25T13:46:23.878Z,25.70
2017-09-25T13:48:52.259Z,25.40
2017-09-25T13:51:20.675Z,25.20
2017-09-25T13:53:49.240Z,24.90
2017-09-25T13:56:17.642Z,24.80
2017-09-25T14:03:53.963Z,23.90
2017-09-25T14:06:22.588Z,23.60
2017-09-25T14:08:51.272Z,23.40
2017-09-25T14:11:19.958Z,23.50
2017-09-25T14:13:48.587Z,23.70
2017-09-25T14:16:17.117Z,23.60
2017-09-25T14:18:45.809Z,23.80
2017-09-25T14:21:14.440Z,23.70
2017-09-25T14:23:42.973Z,23.70
2017-09-25T14:26:11.723Z,23.10
2017-09-25T14:28:40.552Z,22.70
2017-09-25T14:31:09.237Z,22.40
2017-09-25T14:33:38.024Z,22.30
2017-09-25T14:36:06.647Z,22.20
2017-09-25T14:38:36.017Z,22.00
2017-09-25T14:41:04.677Z,22.00
2017-09-25T14:43:33.274Z,21.90
2017-09-25T14:46:01.969Z,21.80
2017-09-25T14:48:32.329Z,21.70
2017-09-25T14:51:01.747Z,21.60
2017-09-25T14:53:30.258Z,21.60
2017-09-25T14:55:59.304Z,21.70
2017-09-25T14:58:27.901Z,21.80
2017-09-25T15:00:56.540Z,21.70
2017-09-25T15:03:25.224Z,21.70
2017-09-25T15:05:53.805Z,21.70
2017-09-25T15:08:22.445Z,21.60
2017-09-25T15:10:51.111Z,21.50
2017-09-25T15:13:20.527Z,21.60
2017-09-25T15:15:49.159Z,21.60
2017-09-25T15:18:17.952Z,21.50
2017-09-25T15:20:46.637Z,21.50
2017-09-25T15:23:15.271Z,21.40
2017-09-25T15:25:43.901Z,21.20
2017-09-25T15:28:12.483Z,21.00
2017-09-25T15:30:41.798Z,20.80
2017-09-25T15:33:10.569Z,20.80
2017-09-25T15:35:39.260Z,20.80
2017-09-25T15:38:08.007Z,20.70
2017-09-25T15:40:36.629Z,20.40
2017-09-25T15:43:05.417Z,20.20
2017-09-25T15:45:34.053Z,20.20
2017-09-25T15:48:02.681Z,20.00
2017-09-25T15:50:31.312Z,19.80
2017-09-25T15:52:59.955Z,19.80
2017-09-25T15:55:28.640Z,19.70
2017-09-25T15:57:57.369Z,19.60
2017-09-25T16:00:26.841Z,19.30
2017-09-25T16:02:55.552Z,19.30
2017-09-25T16:05:25.020Z,19.20
2017-09-25T16:07:53.705Z,19.20
2017-09-25T16:10:22.382Z,19.20
2017-09-25T16:12:51.187Z,19.20
2017-09-25T16:15:20.018Z,19.10
2017-09-25T16:17:48.754Z,19.00
2017-09-25T16:20:17.441Z,18.80
2017-09-25T16:22:46.015Z,18.70
2017-09-25T16:25:14.604Z,18.80
2017-09-25T16:27:44.009Z,18.60
2017-09-25T16:30:12.688Z,18.60
2017-09-25T16:32:42.055Z,18.40
2017-09-25T16:35:10.675Z,18.20
2017-09-25T16:37:39.276Z,18.20
2017-09-25T16:40:08.052Z,18.10
2017-09-25T16:42:36.728Z,18.00
2017-09-25T16:45:05.427Z,18.00
2017-09-25T16:47:34.024Z,18.00
2017-09-25T16:50:02.690Z,17.80
2017-09-25T16:52:31.411Z,17.70
2017-09-25T16:55:00.770Z,17.50
2017-09-25T16:57:29.454Z,17.50
2017-09-25T16:59:58.253Z,17.30
2017-09-25T17:02:26.970Z,17.20
2017-09-25T17:04:56.380Z,17.00
2017-09-25T17:07:26.058Z,16.90
2017-09-25T17:09:54.652Z,16.90
2017-09-25T17:12:23.257Z,16.80
2017-09-25T17:14:52.625Z,16.60
2017-09-25T17:17:21.504Z,16.60
2017-09-25T17:19:50.135Z,16.50
2017-09-25T17:22:18.768Z,16.40
2017-09-25T17:24:47.666Z,16.30
2017-09-25T17:27:16.262Z,16.30
2017-09-25T17:29:44.940Z,16.30
2017-09-25T17:32:13.576Z,16.20
2017-09-25T17:34:42.588Z,16.10
2017-09-25T17:37:11.298Z,16.00
2017-09-25T17:39:40.171Z,15.90
2017-09-25T17:42:08.821Z,15.90
2017-09-25T17:44:37.405Z,15.90
2017-09-25T17:47:06.143Z,15.90
2017-09-25T17:49:34.660Z,15.80
2017-09-25T17:52:04.194Z,15.60
2017-09-25T17:54:33.143Z,15.60
2017-09-25T17:57:03.285Z,15.50
2017-09-25T17:59:32.716Z,15.50
2017-09-25T18:02:01.638Z,15.40
2017-09-25T18:04:30.294Z,15.40
2017-09-25T18:06:58.959Z,15.40
2017-09-25T18:09:27.702Z,15.30
2017-09-25T18:11:56.398Z,15.30
2017-09-25T18:14:24.881Z,15.20
2017-09-25T18:16:53.549Z,15.10
2017-09-25T18:19:22.417Z,15.10
2017-09-25T18:21:51.640Z,15.10
2017-09-25T18:24:20.347Z,15.00
2017-09-25T18:26:49.873Z,14.90
2017-09-25T18:29:18.611Z,14.80
2017-09-25T18:31:55.418Z,14.80
2017-09-25T18:34:24.723Z,14.70
2017-09-25T18:36:55.231Z,14.60
2017-09-25T18:39:23.831Z,14.50
2017-09-25T18:41:53.196Z,14.40
2017-09-25T18:44:21.886Z,14.40
2017-09-25T18:46:50.576Z,14.40
2017-09-25T18:49:19.581Z,14.30
2017-09-25T18:51:49.384Z,14.20
2017-09-25T18:54:18.163Z,14.20
2017-09-25T18:56:46.849Z,14.20
2017-09-25T18:59:16.662Z,14.10
2017-09-25T19:01:45.570Z,14.10
2017-09-25T19:04:14.200Z,14.10
2017-09-25T19:06:42.946Z,14.10
2017-09-25T19:09:11.978Z,14.10
2017-09-25T19:11:41.112Z,14.00
2017-09-25T19:14:11.025Z,13.90
2017-09-25T19:16:39.727Z,13.90
2017-09-25T19:19:09.320Z,13.80
2017-09-25T19:21:38.317Z,13.80
2017-09-25T19:24:08.030Z,13.70
2017-09-25T19:26:36.760Z,13.70
2017-09-25T19:29:05.678Z,13.70
2017-09-25T19:31:34.699Z,13.70
2017-09-25T19:34:03.504Z,13.60
2017-09-25T19:36:33.514Z,13.50
2017-09-25T19:39:03.007Z,13.50
2017-09-25T19:41:31.683Z,13.40
2017-09-25T19:44:01.198Z,13.40
2017-09-25T19:46:30.700Z,13.30
2017-09-25T19:48:59.936Z,13.30
2017-09-25T19:51:28.673Z,13.30
2017-09-25T19:54:03.645Z,13.30
2017-09-25T19:56:43.259Z,13.40
2017-09-25T19:59:12.485Z,13.40
2017-09-25T20:01:41.847Z,13.40
2017-09-25T20:04:11.030Z,13.40
2017-09-25T20:06:40.548Z,13.40
2017-09-25T20:09:10.097Z,13.40
2017-09-25T20:11:40.303Z,13.40
2017-09-25T20:17:15.042Z,13.40
2017-09-25T20:19:44.456Z,13.30
2017-09-25T20:22:15.393Z,13.20
2017-09-25T20:24:46.148Z,13.10
2017-09-25T20:27:16.789Z,13.10
2017-09-25T20:29:46.556Z,13.10
2017-09-25T20:32:16.525Z,13.10
2017-09-25T20:34:46.579Z,13.10
2017-09-25T20:37:16.954Z,13.10
2017-09-25T20:39:46.969Z,13.10
2017-09-25T20:45:23.895Z,13.00
2017-09-25T20:47:56.209Z,12.90
2017-09-25T20:50:26.716Z,12.90
2017-09-25T20:52:57.145Z,12.80
2017-09-25T20:55:27.573Z,12.80
2017-09-25T20:57:57.081Z,12.70
2017-09-25T21:00:27.443Z,12.70
2017-09-25T21:02:58.175Z,12.50
2017-09-25T21:05:28.735Z,12.50
2017-09-25T21:07:58.546Z,12.50
2017-09-25T21:10:28.545Z,12.50
2017-09-25T21:12:58.552Z,12.50
2017-09-25T21:15:29.114Z,12.40
2017-09-25T21:17:59.097Z,12.40
2017-09-25T21:20:29.697Z,12.40
2017-09-25T21:22:59.297Z,12.40
2017-09-25T21:25:29.135Z,12.40
2017-09-25T21:27:59.545Z,12.20
2017-09-25T21:30:28.598Z,12.20
2017-09-25T21:32:58.755Z,12.20
2017-09-25T21:35:28.267Z,12.10
2017-09-25T21:37:57.401Z,12.10
2017-09-25T21:40:26.433Z,12.10
2017-09-25T21:42:55.752Z,12.00
2017-09-25T21:45:24.422Z,12.00
2017-09-25T21:47:53.698Z,12.00
2017-09-25T21:50:24.538Z,12.00
2017-09-25T21:52:53.704Z,12.00
2017-09-25T21:55:22.778Z,11.90
2017-09-25T21:57:52.929Z,11.90
2017-09-25T22:00:23.616Z,11.80
2017-09-25T22:02:53.235Z,11.70
2017-09-25T22:05:23.110Z,11.70
2017-09-25T22:07:52.312Z,11.70
2017-09-25T22:10:21.720Z,11.70
2017-09-25T22:12:50.508Z,11.70
2017-09-25T22:15:19.399Z,11.70
2017-09-25T22:17:49.274Z,11.60
2017-09-25T22:20:18.649Z,11.60
2017-09-25T22:22:48.239Z,11.50
2017-09-25T22:25:19.960Z,11.50
2017-09-25T22:27:48.617Z,11.50
2017-09-25T22:30:17.244Z,11.40
2017-09-25T22:32:46.000Z,11.30
2017-09-25T22:35:14.717Z,11.30
2017-09-25T22:37:43.404Z,11.30
2017-09-25T22:40:12.088Z,11.30
2017-09-25T22:42:41.288Z,11.20
2017-09-25T22:45:10.178Z,11.10
2017-09-25T22:47:38.804Z,11.10
2017-09-25T22:50:08.750Z,11.10
2017-09-25T22:52:37.960Z,11.10
2017-09-25T22:55:08.810Z,11.10
2017-09-25T22:57:38.881Z,11.00
2017-09-25T23:00:09.007Z,11.00
2017-09-25T23:02:38.884Z,11.00
2017-09-25T23:08:19.753Z,10.90
2017-09-25T23:10:53.475Z,10.90
2017-09-25T23:13:22.452Z,10.90
2017-09-25T23:15:55.774Z,10.80
2017-09-25T23:18:28.745Z,10.80
2017-09-25T23:21:00.344Z,10.80
2017-09-25T23:23:35.752Z,10.70
2017-09-25T23:26:08.513Z,10.70
2017-09-25T23:28:38.878Z,10.70
2017-09-25T23:31:13.046Z,10.60
2017-09-25T23:33:48.767Z,10.50
2017-09-25T23:36:18.906Z,10.50
2017-09-25T23:38:52.258Z,10.30
2017-09-25T23:41:24.597Z,10.30
2017-09-25T23:43:59.497Z,10.40
2017-09-25T23:46:29.774Z,10.30
2017-09-25T23:48:59.033Z,10.40
2017-09-25T23:51:27.425Z,10.30
2017-09-25T23:53:55.809Z,10.40
2017-09-25T23:56:24.465Z,10.30
2017-09-25T23:58:52.840Z,10.40
